createdAt,value
2023-03-26T00:04:46.403Z,7.08
2023-03-26T00:09:49.004Z,7.16
2023-03-26T00:14:52.727Z,7.21
2023-03-26T00:19:57.097Z,7.26
2023-03-26T00:25:01.440Z,7.28
2023-03-26T00:30:05.112Z,7.34
2023-03-26T00:35:08.081Z,7.39
2023-03-26T00:40:11.089Z,7.42
2023-03-26T00:45:13.773Z,7.44
2023-03-26T00:50:16.606Z,7.45
2023-03-26T00:55:19.258Z,7.46
2023-03-26T01:00:31.797Z,7.47
2023-03-26T01:05:34.383Z,7.46
2023-03-26T01:10:38.752Z,7.45
2023-03-26T01:15:41.871Z,7.42
2023-03-26T01:20:49.663Z,7.41
2023-03-26T01:26:09.807Z,7.41
2023-03-26T01:31:29.739Z,7.40
2023-03-26T01:36:42.587Z,7.41
2023-03-26T01:41:49.343Z,7.40
2023-03-26T01:46:52.599Z,7.36
2023-03-26T01:51:57.996Z,7.33
2023-03-26T01:57:36.390Z,7.30
2023-03-26T02:03:19.086Z,7.27
2023-03-26T02:08:35.333Z,7.26
2023-03-26T02:13:41.826Z,7.24
2023-03-26T02:18:46.317Z,7.23
2023-03-26T02:23:57.580Z,7.22
2023-03-26T02:29:01.592Z,7.21
2023-03-26T02:34:04.324Z,7.23
2023-03-26T02:39:06.938Z,7.25
2023-03-26T02:44:09.632Z,7.29
2023-03-26T02:49:12.368Z,7.30
2023-03-26T02:54:16.723Z,7.31
2023-03-26T02:59:19.421Z,7.34
2023-03-26T03:04:22.049Z,7.35
2023-03-26T03:09:27.577Z,7.34
2023-03-26T03:14:31.600Z,7.30
2023-03-26T03:19:34.313Z,7.26
2023-03-26T03:24:36.944Z,7.24
2023-03-26T03:29:39.604Z,7.23
2023-03-26T03:34:42.426Z,7.23
2023-03-26T03:39:45.840Z,7.26
2023-03-26T03:44:48.512Z,7.28
2023-03-26T03:49:51.821Z,7.31
2023-03-26T03:54:57.606Z,7.35
2023-03-26T04:00:00.271Z,7.36
2023-03-26T04:05:04.419Z,7.35
2023-03-26T04:10:09.646Z,7.31
2023-03-26T04:15:12.317Z,7.28
2023-03-26T04:20:15.641Z,7.27
2023-03-26T04:25:19.036Z,7.23
2023-03-26T04:30:21.771Z,7.22
2023-03-26T04:35:24.408Z,7.19
2023-03-26T04:40:30.579Z,7.16
2023-03-26T04:45:33.289Z,7.15
2023-03-26T04:50:36.024Z,7.16
2023-03-26T04:55:45.274Z,7.15
2023-03-26T05:00:49.614Z,7.12
2023-03-26T05:05:52.615Z,7.16
2023-03-26T05:10:56.673Z,7.21
2023-03-26T05:15:59.576Z,7.27
2023-03-26T05:21:02.622Z,7.31
2023-03-26T05:26:07.643Z,7.35
2023-03-26T05:31:10.771Z,7.45
2023-03-26T05:36:15.339Z,7.53
2023-03-26T05:41:18.447Z,7.60
2023-03-26T05:46:22.935Z,7.67
2023-03-26T05:51:25.914Z,7.72
2023-03-26T05:56:28.709Z,7.77
2023-03-26T06:01:31.323Z,7.82
2023-03-26T06:06:33.932Z,7.91
2023-03-26T06:11:36.783Z,8.06
2023-03-26T06:16:39.484Z,8.19
2023-03-26T06:21:42.154Z,8.34
2023-03-26T06:26:45.054Z,8.62
2023-03-26T06:31:47.828Z,8.87
2023-03-26T06:36:52.672Z,9.07
2023-03-26T06:41:55.468Z,9.36
2023-03-26T06:46:58.194Z,9.75
2023-03-26T06:52:02.928Z,9.72
2023-03-26T06:57:05.632Z,9.55
2023-03-26T07:02:11.415Z,9.53
2023-03-26T07:07:14.402Z,9.70
2023-03-26T07:12:17.471Z,9.89
2023-03-26T07:17:20.229Z,9.92
2023-03-26T07:22:24.789Z,9.93
2023-03-26T07:27:46.059Z,9.71
2023-03-26T07:32:54.557Z,9.58
2023-03-26T07:38:13.490Z,9.63
2023-03-26T07:43:38.158Z,9.81
2023-03-26T07:48:43.873Z,10.07
2023-03-26T07:53:47.102Z,10.23
2023-03-26T07:59:11.397Z,10.57
2023-03-26T08:04:27.872Z,10.54
2023-03-26T08:09:35.068Z,10.58
2023-03-26T08:14:37.836Z,10.82
2023-03-26T08:19:59.334Z,11.12
2023-03-26T08:25:18.835Z,11.49
2023-03-26T08:30:26.832Z,12.10
2023-03-26T08:35:30.071Z,12.50
2023-03-26T08:41:00.646Z,11.95
2023-03-26T08:46:27.895Z,11.27
2023-03-26T08:51:55.230Z,10.97
2023-03-26T08:57:13.309Z,10.83
2023-03-26T09:02:26.010Z,10.78
2023-03-26T09:07:47.413Z,11.29
2023-03-26T09:12:58.786Z,12.08
2023-03-26T09:18:32.390Z,12.13
2023-03-26T09:23:40.675Z,11.88
2023-03-26T09:28:56.578Z,11.14
2023-03-26T09:34:19.412Z,10.28
2023-03-26T09:39:42.917Z,9.55
2023-03-26T09:45:10.610Z,9.14
2023-03-26T09:50:44.009Z,9.11
2023-03-26T09:55:59.537Z,9.42
2023-03-26T10:01:18.217Z,9.91
2023-03-26T10:06:59.105Z,10.40
2023-03-26T10:12:20.692Z,10.90
2023-03-26T10:17:44.865Z,10.80
2023-03-26T10:23:11.938Z,10.89
2023-03-26T10:28:46.216Z,11.24
2023-03-26T10:34:28.071Z,11.62
2023-03-26T10:39:44.000Z,11.94
2023-03-26T10:45:13.369Z,12.21
2023-03-26T10:50:40.554Z,12.08
2023-03-26T10:55:50.772Z,11.77
2023-03-26T11:01:10.444Z,12.19
2023-03-26T11:06:16.125Z,12.20
2023-03-26T11:11:42.173Z,12.04
2023-03-26T11:17:40.566Z,11.74
2023-03-26T11:22:41.850Z,11.79
2023-03-26T11:28:13.912Z,11.91
2023-03-26T11:33:57.119Z,11.43
2023-03-26T11:39:04.425Z,10.90
2023-03-26T11:44:17.362Z,10.93
2023-03-26T11:49:22.842Z,10.96
2023-03-26T11:54:25.526Z,11.24
2023-03-26T11:59:55.494Z,12.05
2023-03-26T12:05:18.118Z,12.36
2023-03-26T12:10:33.237Z,12.26
2023-03-26T12:15:43.661Z,11.63
2023-03-26T12:20:46.359Z,10.69
2023-03-26T12:26:05.638Z,9.66
2023-03-26T12:31:18.032Z,8.82
2023-03-26T12:36:26.470Z,8.62
2023-03-26T12:44:43.805Z,8.81
2023-03-26T12:48:01.069Z,9.60
2023-03-26T12:53:02.873Z,9.88
2023-03-26T12:58:39.530Z,10.09
2023-03-26T13:03:58.771Z,10.58
2023-03-26T13:09:20.008Z,10.88
2023-03-26T13:14:35.396Z,11.29
2023-03-26T13:20:06.696Z,11.62
2023-03-26T13:25:18.847Z,11.72
2023-03-26T13:30:47.928Z,11.92
2023-03-26T13:36:23.359Z,11.72
2023-03-26T13:41:36.182Z,11.25
2023-03-26T13:46:43.057Z,11.38
2023-03-26T13:51:53.691Z,12.02
2023-03-26T13:57:15.016Z,12.04
2023-03-26T14:02:39.008Z,11.53
2023-03-26T14:07:48.589Z,10.85
2023-03-26T14:12:57.084Z,10.59
2023-03-26T14:18:06.124Z,10.83
2023-03-26T14:23:40.475Z,11.29
2023-03-26T14:29:21.783Z,11.39
2023-03-26T14:34:51.751Z,10.96
2023-03-26T14:40:17.645Z,10.57
2023-03-26T14:45:35.516Z,10.50
2023-03-26T14:50:48.116Z,10.38
2023-03-26T14:56:09.290Z,10.16
2023-03-26T15:01:21.646Z,10.21
2023-03-26T15:06:59.474Z,10.27
2023-03-26T15:12:18.158Z,10.30
2023-03-26T15:17:34.821Z,10.55
2023-03-26T15:22:40.548Z,10.64
2023-03-26T15:28:20.683Z,10.46
2023-03-26T15:33:35.320Z,10.93
2023-03-26T15:39:18.340Z,11.98
2023-03-26T15:44:38.297Z,11.57
2023-03-26T15:49:59.140Z,10.75
2023-03-26T15:55:31.296Z,10.16
2023-03-26T16:00:50.082Z,9.72
2023-03-26T16:06:27.871Z,9.71
2023-03-26T16:11:52.752Z,9.96
2023-03-26T16:17:00.271Z,9.77
2023-03-26T16:22:10.139Z,9.42
2023-03-26T16:27:14.115Z,9.08
2023-03-26T16:32:32.935Z,8.78
2023-03-26T16:37:37.881Z,8.50
2023-03-26T16:43:05.520Z,8.28
2023-03-26T16:48:22.727Z,8.09
2023-03-26T16:54:00.823Z,7.90
2023-03-26T16:59:09.256Z,7.71
2023-03-26T17:04:23.645Z,7.57
2023-03-26T17:09:51.968Z,7.46
2023-03-26T17:15:25.417Z,7.42
2023-03-26T17:20:38.612Z,7.44
2023-03-26T17:26:19.322Z,7.49
2023-03-26T17:31:27.732Z,7.52
2023-03-26T17:36:40.893Z,7.52
2023-03-26T17:42:01.273Z,7.46
2023-03-26T17:47:13.463Z,7.40
2023-03-26T17:52:36.924Z,7.31
2023-03-26T17:57:44.647Z,7.29
2023-03-26T18:03:20.244Z,7.29
2023-03-26T18:08:46.494Z,7.27
2023-03-26T18:14:13.469Z,7.22
2023-03-26T18:19:21.977Z,7.15
2023-03-26T18:24:29.740Z,7.06
2023-03-26T18:29:36.565Z,7.00
2023-03-26T18:34:50.077Z,7.05
2023-03-26T18:40:12.094Z,7.14
2023-03-26T18:45:36.372Z,7.18
2023-03-26T18:50:43.021Z,7.16
2023-03-26T18:55:51.594Z,7.11
2023-03-26T19:01:00.608Z,7.06
2023-03-26T19:06:12.752Z,7.02
2023-03-26T19:11:18.536Z,6.98
2023-03-26T19:16:30.110Z,6.94
2023-03-26T19:21:36.831Z,6.89
2023-03-26T19:26:41.053Z,6.83
2023-03-26T19:31:54.481Z,6.72
2023-03-26T19:37:03.887Z,6.58
2023-03-26T19:42:18.638Z,6.44
2023-03-26T19:47:39.136Z,6.29
2023-03-26T19:53:17.943Z,6.10
2023-03-26T19:58:21.533Z,5.91
2023-03-26T20:03:31.956Z,5.72
2023-03-26T20:08:36.773Z,5.50
2023-03-26T20:13:41.338Z,5.29
2023-03-26T20:18:44.458Z,5.12
2023-03-26T20:23:48.507Z,4.95
2023-03-26T20:28:53.466Z,4.79
2023-03-26T20:33:57.527Z,4.64
2023-03-26T20:39:00.811Z,4.53
2023-03-26T20:44:04.962Z,4.44
2023-03-26T20:49:07.863Z,4.38
2023-03-26T20:54:19.233Z,4.33
2023-03-26T20:59:26.172Z,4.28
2023-03-26T21:04:29.287Z,4.20
2023-03-26T21:09:34.106Z,4.07
2023-03-26T21:14:44.092Z,3.94
2023-03-26T21:19:47.631Z,3.82
2023-03-26T21:24:57.212Z,3.70
2023-03-26T21:30:00.169Z,3.59
2023-03-26T21:35:05.172Z,3.49
2023-03-26T21:40:15.485Z,3.39
2023-03-26T21:45:19.365Z,3.25
2023-03-26T21:50:23.531Z,3.10
2023-03-26T21:55:26.646Z,2.96
2023-03-26T22:00:43.830Z,2.83
2023-03-26T22:06:11.405Z,2.71
2023-03-26T22:11:14.031Z,2.59
2023-03-26T22:16:16.858Z,2.46
2023-03-26T22:21:20.333Z,2.29
2023-03-26T22:26:24.285Z,2.11
2023-03-26T22:31:27.126Z,1.98
2023-03-26T22:36:29.771Z,1.84
2023-03-26T22:41:32.459Z,1.75
2023-03-26T22:46:35.164Z,1.67
2023-03-26T22:51:37.831Z,1.61
2023-03-26T22:56:40.677Z,1.59
2023-03-26T23:01:44.366Z,1.58
2023-03-26T23:06:47.097Z,1.55
2023-03-26T23:11:49.752Z,1.51
2023-03-26T23:16:52.358Z,1.48
2023-03-26T23:21:54.975Z,1.41
2023-03-26T23:26:58.773Z,1.29
2023-03-26T23:32:01.410Z,1.19
2023-03-26T23:37:04.669Z,1.13
2023-03-26T23:42:07.344Z,1.11
2023-03-26T23:47:10.196Z,1.09
2023-03-26T23:52:13.670Z,1.01
2023-03-26T23:57:18.404Z,0.91
